createdAt,value
2022-12-08T00:01:21.044Z,1.50
2022-12-08T00:03:48.466Z,2.35
2022-12-08T00:06:54.975Z,2.83
2022-12-08T00:09:24.060Z,2.35
2022-12-08T00:11:51.834Z,1.63
2022-12-08T00:14:18.985Z,2.20
2022-12-08T00:16:45.995Z,2.35
2022-12-08T00:19:12.824Z,2.10
2022-12-08T00:21:39.656Z,2.53
2022-12-08T00:24:06.680Z,2.83
2022-12-08T00:26:33.505Z,2.00
2022-12-08T00:29:00.246Z,2.33
2022-12-08T00:31:27.088Z,2.90
2022-12-08T00:33:53.871Z,3.10
2022-12-08T00:36:20.774Z,3.63
2022-12-08T00:38:48.597Z,3.28
2022-12-08T00:41:41.369Z,3.80
2022-12-08T00:44:09.309Z,1.23
2022-12-08T00:46:36.511Z,1.30
2022-12-08T00:49:04.539Z,2.88
2022-12-08T00:51:31.271Z,1.63
2022-12-08T00:53:58.168Z,1.48
2022-12-08T00:56:25.214Z,2.60
2022-12-08T00:58:52.313Z,3.35
2022-12-08T01:01:19.174Z,4.05
2022-12-08T01:03:46.042Z,2.80
2022-12-08T01:06:12.942Z,3.17
2022-12-08T01:08:40.706Z,3.08
2022-12-08T01:11:10.368Z,2.75
2022-12-08T01:13:37.261Z,1.70
2022-12-08T01:16:04.534Z,2.17
2022-12-08T01:18:31.813Z,1.35
2022-12-08T01:21:06.135Z,3.42
2022-12-08T01:23:33.848Z,1.38
2022-12-08T01:26:06.068Z,1.98
2022-12-08T01:28:33.421Z,2.00
2022-12-08T01:31:01.455Z,2.28
2022-12-08T01:33:28.542Z,2.67
2022-12-08T01:35:55.896Z,3.00
2022-12-08T01:38:22.945Z,2.75
2022-12-08T01:40:49.837Z,3.05
2022-12-08T01:43:18.881Z,2.58
2022-12-08T01:45:45.933Z,2.22
2022-12-08T01:48:21.981Z,2.03
2022-12-08T01:50:49.753Z,1.42
2022-12-08T01:53:22.278Z,2.88
2022-12-08T01:58:31.705Z,2.50
2022-12-08T02:00:58.617Z,1.40
2022-12-08T02:03:51.723Z,1.95
2022-12-08T02:06:20.576Z,2.70
2022-12-08T02:08:49.723Z,2.00
2022-12-08T02:11:17.162Z,3.30
2022-12-08T02:13:46.071Z,3.03
2022-12-08T02:16:21.960Z,3.28
2022-12-08T02:19:22.533Z,3.50
2022-12-08T02:22:08.960Z,1.92
2022-12-08T02:25:14.171Z,3.63
2022-12-08T02:27:53.234Z,2.10
2022-12-08T02:30:25.168Z,4.03
2022-12-08T02:33:13.031Z,2.40
2022-12-08T02:35:54.772Z,2.75
2022-12-08T02:38:56.790Z,3.07
2022-12-08T02:41:47.504Z,2.47
2022-12-08T02:44:32.358Z,2.90
2022-12-08T02:47:06.263Z,3.65
2022-12-08T02:49:34.084Z,4.05
2022-12-08T02:52:27.038Z,4.65
2022-12-08T02:54:58.692Z,2.28
2022-12-08T02:57:37.435Z,3.80
2022-12-08T03:00:07.676Z,4.07
2022-12-08T03:02:43.987Z,3.05
2022-12-08T03:05:38.604Z,3.63
2022-12-08T03:08:23.205Z,2.65
2022-12-08T03:11:16.114Z,1.42
2022-12-08T03:16:16.595Z,2.05
2022-12-08T03:18:49.501Z,1.30
2022-12-08T03:21:18.380Z,1.58
2022-12-08T03:23:48.210Z,2.60
2022-12-08T03:26:27.424Z,0.80
2022-12-08T03:28:54.729Z,1.35
2022-12-08T03:31:24.151Z,1.85
2022-12-08T03:33:53.945Z,1.67
2022-12-08T03:36:20.939Z,1.73
2022-12-08T03:38:52.930Z,1.40
2022-12-08T03:41:21.468Z,1.25
2022-12-08T03:43:57.034Z,1.08
2022-12-08T03:48:51.395Z,0.55
2022-12-08T03:51:19.031Z,0.43
2022-12-08T03:53:46.864Z,1.25
2022-12-08T03:56:28.001Z,0.47
2022-12-08T03:58:55.452Z,0.50
2022-12-08T04:01:22.769Z,0.52
2022-12-08T04:03:49.751Z,0.38
2022-12-08T04:06:17.256Z,1.33
2022-12-08T04:08:44.203Z,0.60
2022-12-08T04:11:11.248Z,0.90
2022-12-08T04:13:39.217Z,1.05
2022-12-08T04:16:06.565Z,0.90
2022-12-08T04:18:35.055Z,1.13
2022-12-08T04:21:02.152Z,0.60
2022-12-08T04:23:28.895Z,1.38
2022-12-08T04:25:55.737Z,1.20
2022-12-08T04:28:22.681Z,1.70
2022-12-08T04:30:49.996Z,1.30
2022-12-08T04:33:17.273Z,1.60
2022-12-08T04:35:44.133Z,2.00
2022-12-08T04:38:10.932Z,1.63
2022-12-08T04:40:37.714Z,1.88
2022-12-08T04:43:04.721Z,2.03
2022-12-08T04:45:32.144Z,2.53
2022-12-08T04:48:02.275Z,2.28
2022-12-08T04:50:29.103Z,2.38
2022-12-08T04:52:55.769Z,2.75
2022-12-08T04:55:22.664Z,2.70
2022-12-08T04:57:49.868Z,1.75
2022-12-08T05:00:16.876Z,1.85
2022-12-08T05:02:43.666Z,1.35
2022-12-08T05:05:10.705Z,1.13
2022-12-08T05:07:37.973Z,1.58
2022-12-08T05:10:05.882Z,1.48
2022-12-08T05:12:33.130Z,2.88
2022-12-08T05:14:59.913Z,2.08
2022-12-08T05:17:26.788Z,1.70
2022-12-08T05:19:53.663Z,0.60
2022-12-08T05:22:20.450Z,0.82
2022-12-08T05:24:47.943Z,1.02
2022-12-08T05:27:15.111Z,1.30
2022-12-08T05:29:42.366Z,0.82
2022-12-08T05:32:09.244Z,1.67
2022-12-08T05:34:36.098Z,1.52
2022-12-08T05:37:02.932Z,1.17
2022-12-08T05:39:29.736Z,1.48
2022-12-08T05:41:56.412Z,1.48
2022-12-08T05:44:23.204Z,1.38
2022-12-08T05:46:50.252Z,0.93
2022-12-08T05:49:17.224Z,1.10
2022-12-08T05:51:43.929Z,0.93
2022-12-08T05:54:11.033Z,1.00
2022-12-08T05:56:37.880Z,1.17
2022-12-08T05:59:08.254Z,0.32
2022-12-08T06:01:35.459Z,0.85
2022-12-08T06:04:03.789Z,1.30
2022-12-08T06:06:31.702Z,1.08
2022-12-08T06:08:58.494Z,1.17
2022-12-08T06:11:28.319Z,1.33
2022-12-08T06:13:56.712Z,1.30
2022-12-08T06:16:24.720Z,0.80
2022-12-08T06:18:51.920Z,1.20
2022-12-08T06:21:19.746Z,1.42
2022-12-08T06:23:51.123Z,1.27
2022-12-08T06:26:18.224Z,0.32
2022-12-08T06:28:45.575Z,0.52
2022-12-08T06:31:17.075Z,0.70
2022-12-08T06:33:44.027Z,0.70
2022-12-08T06:36:13.530Z,0.90
2022-12-08T06:38:43.507Z,0.63
2022-12-08T06:41:11.516Z,0.70
2022-12-08T06:43:38.626Z,1.08
2022-12-08T06:46:07.761Z,1.60
2022-12-08T06:48:34.654Z,0.70
2022-12-08T06:51:27.508Z,1.15
2022-12-08T06:56:22.918Z,0.28
2022-12-08T06:58:52.835Z,0.98
2022-12-08T07:01:20.046Z,0.40
2022-12-08T07:03:47.789Z,1.35
2022-12-08T07:06:18.805Z,1.30
2022-12-08T07:08:45.544Z,1.38
2022-12-08T07:11:18.103Z,1.50
2022-12-08T07:13:47.894Z,1.60
2022-12-08T07:16:15.059Z,1.50
2022-12-08T07:18:43.047Z,1.23
2022-12-08T07:21:13.075Z,2.10
2022-12-08T07:23:39.969Z,2.10
2022-12-08T07:26:09.981Z,2.47
2022-12-08T07:28:38.770Z,2.30
2022-12-08T07:31:06.659Z,2.00
2022-12-08T07:33:36.015Z,1.75
2022-12-08T07:36:05.341Z,1.77
2022-12-08T07:38:32.246Z,1.15
2022-12-08T07:40:59.283Z,1.92
2022-12-08T07:43:26.073Z,2.30
2022-12-08T07:45:52.967Z,2.20
2022-12-08T07:48:20.119Z,1.42
2022-12-08T07:50:47.579Z,1.88
2022-12-08T07:53:14.522Z,1.88
2022-12-08T07:55:43.259Z,2.10
2022-12-08T07:58:10.869Z,1.35
2022-12-08T08:00:37.799Z,1.35
2022-12-08T08:03:04.716Z,2.00
2022-12-08T08:05:31.629Z,1.77
2022-12-08T08:07:58.477Z,1.80
2022-12-08T08:10:25.607Z,1.70
2022-12-08T08:12:52.441Z,0.90
2022-12-08T08:15:21.090Z,1.58
2022-12-08T08:17:53.341Z,1.20
2022-12-08T08:20:20.967Z,0.75
2022-12-08T08:22:49.638Z,1.35
2022-12-08T08:25:17.045Z,1.70
2022-12-08T08:27:44.143Z,1.70
2022-12-08T08:30:19.647Z,1.50
2022-12-08T08:32:47.667Z,0.65
2022-12-08T08:35:14.715Z,1.52
2022-12-08T08:37:47.072Z,0.85
2022-12-08T08:40:15.717Z,1.20
2022-12-08T08:42:42.506Z,1.60
2022-12-08T08:45:09.826Z,1.23
2022-12-08T08:47:36.567Z,1.00
2022-12-08T08:50:04.706Z,0.40
2022-12-08T08:52:31.771Z,0.95
2022-12-08T08:54:58.564Z,0.40
2022-12-08T08:57:26.193Z,1.33
2022-12-08T08:59:53.788Z,0.60
2022-12-08T09:02:21.522Z,0.30
2022-12-08T09:04:48.640Z,1.00
2022-12-08T09:07:16.134Z,0.70
2022-12-08T09:09:43.514Z,1.10
2022-12-08T09:12:11.332Z,0.65
2022-12-08T09:14:38.201Z,0.80
2022-12-08T09:17:06.052Z,0.45
2022-12-08T09:19:32.880Z,1.17
2022-12-08T09:21:59.619Z,0.52
2022-12-08T09:24:26.734Z,0.68
2022-12-08T09:26:53.613Z,0.30
2022-12-08T09:29:20.406Z,0.70
2022-12-08T09:31:47.488Z,0.90
2022-12-08T09:34:15.882Z,1.00
2022-12-08T09:36:42.880Z,1.30
2022-12-08T09:39:09.832Z,0.50
2022-12-08T09:41:48.305Z,0.50
2022-12-08T09:44:44.792Z,0.38
2022-12-08T09:47:35.820Z,0.38
2022-12-08T09:50:26.950Z,0.90
2022-12-08T09:53:12.444Z,0.40
2022-12-08T09:55:52.638Z,0.45
2022-12-08T09:58:28.114Z,0.68
2022-12-08T10:00:55.253Z,0.90
2022-12-08T10:03:26.769Z,0.40
2022-12-08T10:06:06.375Z,0.70
2022-12-08T10:09:01.277Z,0.85
2022-12-08T10:12:01.662Z,0.93
2022-12-08T10:14:36.584Z,0.50
2022-12-08T10:17:24.434Z,0.20
2022-12-08T10:20:11.076Z,0.47
2022-12-08T10:22:44.342Z,0.70
2022-12-08T10:25:22.020Z,0.85
2022-12-08T10:27:52.242Z,1.08
2022-12-08T10:30:20.470Z,0.90
2022-12-08T10:32:50.909Z,0.88
2022-12-08T10:35:20.150Z,0.80
2022-12-08T10:37:59.273Z,1.00
2022-12-08T10:40:30.021Z,0.60
2022-12-08T10:42:59.467Z,0.93
2022-12-08T10:45:32.431Z,0.50
2022-12-08T10:48:03.438Z,0.80
2022-12-08T10:50:36.273Z,0.20
2022-12-08T10:53:14.733Z,0.63
2022-12-08T10:56:05.834Z,0.55
2022-12-08T10:58:41.000Z,0.80
2022-12-08T11:01:30.157Z,0.65
2022-12-08T11:04:27.767Z,0.38
2022-12-08T11:06:54.609Z,0.20
2022-12-08T11:09:21.401Z,0.38
2022-12-08T11:11:59.210Z,0.60
2022-12-08T11:14:28.916Z,0.47
2022-12-08T11:17:04.995Z,0.50
2022-12-08T11:19:31.818Z,0.35
2022-12-08T11:21:58.655Z,0.20
2022-12-08T11:24:31.309Z,0.20
2022-12-08T11:27:04.327Z,0.38
2022-12-08T11:29:33.623Z,0.45
2022-12-08T11:32:14.694Z,0.38
2022-12-08T11:35:00.136Z,0.65
2022-12-08T11:37:42.586Z,0.75
2022-12-08T11:40:23.411Z,1.02
2022-12-08T11:43:17.785Z,0.77
2022-12-08T11:45:44.778Z,1.20
2022-12-08T11:48:23.969Z,0.90
2022-12-08T11:51:00.557Z,1.80
2022-12-08T11:53:33.238Z,1.27
2022-12-08T11:56:13.116Z,1.20
2022-12-08T11:58:50.514Z,0.57
2022-12-08T12:01:21.349Z,0.98
2022-12-08T12:03:57.561Z,0.57
2022-12-08T12:06:57.827Z,1.10
2022-12-08T12:09:34.320Z,0.73
2022-12-08T12:12:22.042Z,1.25
2022-12-08T12:15:13.741Z,0.65
2022-12-08T12:17:46.472Z,0.85
2022-12-08T12:20:21.285Z,0.35
2022-12-08T12:22:53.241Z,0.30
2022-12-08T12:25:23.623Z,1.20
2022-12-08T12:27:57.076Z,1.05
2022-12-08T12:30:31.108Z,1.10
2022-12-08T12:33:00.693Z,1.13
2022-12-08T12:35:41.449Z,1.70
2022-12-08T12:39:04.411Z,1.70
2022-12-08T12:41:53.690Z,1.65
2022-12-08T12:44:29.581Z,1.75
2022-12-08T12:47:11.221Z,2.00
2022-12-08T12:49:40.977Z,2.63
2022-12-08T12:52:10.590Z,2.20
2022-12-08T12:55:02.215Z,1.65
2022-12-08T12:57:52.662Z,1.13
2022-12-08T13:00:28.816Z,2.40
2022-12-08T13:02:58.544Z,2.13
2022-12-08T13:05:36.182Z,1.27
2022-12-08T13:08:16.115Z,0.98
2022-12-08T13:10:58.177Z,1.67
2022-12-08T13:13:25.071Z,1.20
2022-12-08T13:15:58.725Z,1.08
2022-12-08T13:18:38.050Z,1.60
2022-12-08T13:21:14.937Z,1.60
2022-12-08T13:23:45.418Z,1.17
2022-12-08T13:26:23.880Z,1.08
2022-12-08T13:29:03.680Z,1.63
2022-12-08T13:31:45.094Z,1.50
2022-12-08T13:34:33.052Z,0.47
2022-12-08T13:37:11.737Z,1.27
2022-12-08T13:39:47.420Z,1.58
2022-12-08T13:42:23.121Z,1.58
2022-12-08T13:48:23.522Z,2.33
2022-12-08T13:54:45.372Z,2.50
2022-12-08T13:59:20.795Z,3.22
2022-12-08T14:01:49.580Z,3.20
2022-12-08T14:04:42.580Z,3.15
2022-12-08T14:07:11.110Z,2.80
2022-12-08T14:09:38.313Z,3.08
2022-12-08T14:12:19.737Z,3.08
2022-12-08T14:15:05.210Z,2.83
2022-12-08T14:17:33.276Z,3.13
2022-12-08T14:20:12.298Z,2.50
2022-12-08T14:22:40.907Z,2.70
2022-12-08T14:25:15.020Z,2.50
2022-12-08T14:27:42.478Z,2.55
2022-12-08T14:30:18.999Z,2.33
2022-12-08T14:32:49.947Z,2.33
2022-12-08T14:35:30.296Z,2.70
2022-12-08T14:38:00.081Z,2.50
2022-12-08T14:40:36.989Z,2.70
2022-12-08T14:43:13.631Z,2.03
2022-12-08T14:45:43.423Z,2.45
2022-12-08T14:48:26.087Z,2.67
2022-12-08T14:54:01.115Z,2.67
2022-12-08T14:56:38.608Z,2.28
2022-12-08T14:59:13.669Z,2.92
2022-12-08T15:01:41.883Z,2.08
2022-12-08T15:04:14.688Z,3.28
2022-12-08T15:07:11.919Z,2.90
2022-12-08T15:09:44.512Z,2.40
2022-12-08T15:12:14.270Z,2.92
2022-12-08T15:14:43.999Z,1.80
2022-12-08T15:17:32.327Z,3.20
2022-12-08T15:20:01.037Z,2.70
2022-12-08T15:22:29.544Z,2.15
2022-12-08T15:24:57.443Z,3.03
2022-12-08T15:27:25.791Z,3.05
2022-12-08T15:29:53.299Z,3.35
2022-12-08T15:32:22.701Z,3.50
2022-12-08T15:34:50.367Z,3.42
2022-12-08T15:37:26.588Z,3.53
2022-12-08T15:39:53.795Z,2.92
2022-12-08T15:42:20.730Z,3.70
2022-12-08T15:44:47.863Z,2.95
2022-12-08T15:47:18.358Z,2.53
2022-12-08T15:49:46.064Z,3.13
2022-12-08T15:52:15.418Z,3.00
2022-12-08T15:54:42.364Z,3.80
2022-12-08T15:58:17.008Z,4.13
2022-12-08T16:00:51.134Z,2.83
2022-12-08T16:03:42.518Z,3.95
2022-12-08T16:09:11.637Z,3.63
2022-12-08T16:12:06.510Z,3.67
2022-12-08T16:15:46.697Z,3.70
2022-12-08T16:17:21.199Z,4.20
2022-12-08T16:19:48.064Z,3.47
2022-12-08T16:25:21.787Z,3.47
2022-12-08T16:28:36.769Z,4.03
2022-12-08T16:30:38.771Z,4.35
2022-12-08T16:33:05.618Z,4.30
2022-12-08T16:35:32.672Z,4.05
2022-12-08T16:37:59.556Z,4.18
2022-12-08T16:40:26.299Z,4.80
2022-12-08T16:42:53.458Z,3.90
2022-12-08T16:45:23.251Z,4.05
2022-12-08T16:47:54.797Z,3.22
2022-12-08T16:50:23.947Z,3.75
2022-12-08T16:52:56.024Z,2.55
2022-12-08T16:55:22.831Z,4.15
2022-12-08T16:57:49.878Z,4.03
2022-12-08T17:00:22.326Z,4.80
2022-12-08T17:05:18.393Z,3.28
2022-12-08T17:07:46.745Z,3.08
2022-12-08T17:10:18.768Z,4.00
2022-12-08T17:12:46.332Z,4.43
2022-12-08T17:15:16.762Z,6.22
2022-12-08T17:17:43.960Z,5.80
2022-12-08T17:20:16.245Z,5.00
2022-12-08T17:22:43.902Z,5.35
2022-12-08T17:25:10.739Z,4.70
2022-12-08T17:27:37.986Z,5.07
2022-12-08T17:30:06.936Z,4.82
2022-12-08T17:32:33.957Z,4.88
2022-12-08T17:35:01.027Z,4.88
2022-12-08T17:37:27.813Z,4.97
2022-12-08T17:39:54.555Z,4.68
2022-12-08T17:42:25.902Z,4.88
2022-12-08T17:44:53.352Z,6.97
2022-12-08T17:47:20.307Z,5.63
2022-12-08T17:49:47.146Z,6.25
2022-12-08T17:52:14.093Z,6.35
2022-12-08T17:54:40.888Z,5.88
2022-12-08T17:57:07.777Z,6.25
2022-12-08T17:59:34.463Z,6.30
2022-12-08T18:02:01.371Z,6.03
2022-12-08T18:04:28.410Z,6.72
2022-12-08T18:06:55.433Z,6.57
2022-12-08T18:09:22.259Z,6.72
2022-12-08T18:11:49.141Z,6.43
2022-12-08T18:14:16.909Z,6.38
2022-12-08T18:16:46.202Z,6.72
2022-12-08T18:19:14.125Z,7.18
2022-12-08T18:21:41.633Z,7.25
2022-12-08T18:24:14.519Z,6.93
2022-12-08T18:26:41.399Z,6.85
2022-12-08T18:29:08.204Z,6.90
2022-12-08T18:31:35.006Z,7.47
2022-12-08T18:34:02.811Z,7.50
2022-12-08T18:36:29.603Z,8.30
2022-12-08T18:38:56.290Z,7.97
2022-12-08T18:41:25.776Z,7.32
2022-12-08T18:43:54.383Z,8.13
2022-12-08T18:46:22.217Z,8.18
2022-12-08T18:48:50.884Z,8.60
2022-12-08T18:51:22.622Z,8.63
2022-12-08T18:53:49.740Z,8.75
2022-12-08T18:56:31.484Z,8.45
2022-12-08T18:59:04.375Z,8.30
2022-12-08T19:01:36.068Z,8.68
2022-12-08T19:04:27.492Z,8.40
2022-12-08T19:06:53.208Z,8.25
2022-12-08T19:09:20.670Z,9.02
2022-12-08T19:11:47.458Z,8.75
2022-12-08T19:14:14.200Z,8.93
2022-12-08T19:16:41.245Z,8.07
2022-12-08T19:19:08.087Z,8.63
2022-12-08T19:21:34.843Z,9.40
2022-12-08T19:24:01.591Z,8.70
2022-12-08T19:26:28.930Z,8.50
2022-12-08T19:28:56.199Z,9.50
2022-12-08T19:31:23.014Z,8.60
2022-12-08T19:33:49.973Z,9.13
2022-12-08T19:36:19.459Z,9.82
2022-12-08T19:39:05.061Z,9.90
2022-12-08T19:41:50.891Z,9.57
2022-12-08T19:44:46.407Z,10.55
2022-12-08T19:47:15.086Z,10.20
2022-12-08T19:49:41.986Z,10.57
2022-12-08T19:52:08.928Z,10.40
2022-12-08T19:54:35.721Z,11.30
2022-12-08T19:57:02.790Z,12.20
2022-12-08T19:59:30.354Z,12.45
2022-12-08T20:01:58.656Z,12.70
2022-12-08T20:04:27.304Z,12.38
2022-12-08T20:06:55.964Z,12.63
2022-12-08T20:09:23.997Z,12.70
2022-12-08T20:11:51.114Z,13.48
2022-12-08T20:14:23.126Z,13.38
2022-12-08T20:16:50.820Z,11.65
2022-12-08T20:19:17.885Z,12.20
2022-12-08T20:21:44.665Z,10.95
2022-12-08T20:24:11.522Z,12.30
2022-12-08T20:26:38.483Z,11.52
2022-12-08T20:29:05.315Z,13.40
2022-12-08T20:31:33.175Z,12.27
2022-12-08T20:34:00.729Z,10.18
2022-12-08T20:36:27.921Z,12.20
2022-12-08T20:38:55.434Z,12.07
2022-12-08T20:41:23.458Z,11.88
2022-12-08T20:43:51.011Z,12.18
2022-12-08T20:46:19.300Z,10.85
2022-12-08T20:48:46.605Z,12.30
2022-12-08T20:51:18.857Z,13.18
2022-12-08T20:53:46.121Z,13.02
2022-12-08T20:56:21.760Z,11.98
2022-12-08T20:58:49.851Z,12.65
2022-12-08T21:01:20.012Z,12.82
2022-12-08T21:03:48.299Z,13.30
2022-12-08T21:06:15.755Z,13.18
2022-12-08T21:08:43.015Z,12.38
2022-12-08T21:11:10.947Z,12.45
2022-12-08T21:13:39.384Z,12.70
2022-12-08T21:16:09.280Z,12.20
2022-12-08T21:18:39.685Z,12.30
2022-12-08T21:21:12.733Z,12.80
2022-12-08T21:23:40.805Z,12.98
2022-12-08T21:26:16.556Z,13.15
2022-12-08T21:28:43.856Z,13.65
2022-12-08T21:31:12.987Z,13.90
2022-12-08T21:33:40.240Z,13.02
2022-12-08T21:36:11.706Z,12.88
2022-12-08T21:38:40.096Z,12.77
2022-12-08T21:41:10.688Z,12.18
2022-12-08T21:43:38.048Z,13.18
2022-12-08T21:46:06.009Z,12.27
2022-12-08T21:48:32.935Z,13.10
2022-12-08T21:51:08.687Z,13.30
2022-12-08T21:53:35.445Z,12.93
2022-12-08T21:56:02.285Z,12.52
2022-12-08T21:58:31.943Z,13.40
2022-12-08T22:01:05.713Z,13.18
2022-12-08T22:03:32.810Z,13.20
2022-12-08T22:06:07.891Z,13.15
2022-12-08T22:08:35.417Z,13.57
2022-12-08T22:11:02.949Z,14.07
2022-12-08T22:13:30.021Z,13.65
2022-12-08T22:15:59.414Z,13.27
2022-12-08T22:18:26.426Z,13.38
2022-12-08T22:20:54.980Z,14.48
2022-12-08T22:23:22.468Z,13.07
2022-12-08T22:26:02.930Z,13.05
2022-12-08T22:28:35.051Z,12.50
2022-12-08T22:31:07.547Z,12.60
2022-12-08T22:33:34.358Z,13.52
2022-12-08T22:36:09.829Z,14.15
2022-12-08T22:38:37.367Z,13.77
2022-12-08T22:41:05.647Z,13.70
2022-12-08T22:43:32.857Z,12.45
2022-12-08T22:45:59.916Z,13.23
2022-12-08T22:48:26.791Z,13.63
2022-12-08T22:50:59.665Z,14.00
2022-12-08T22:53:26.573Z,12.07
2022-12-08T22:55:53.818Z,13.55
2022-12-08T22:58:20.828Z,13.00
2022-12-08T23:00:47.834Z,13.75
2022-12-08T23:03:14.801Z,13.00
2022-12-08T23:05:41.715Z,13.20
2022-12-08T23:08:11.988Z,13.13
2022-12-08T23:10:40.456Z,13.57
2022-12-08T23:13:07.372Z,13.18
2022-12-08T23:15:34.222Z,13.82
2022-12-08T23:18:01.160Z,13.50
2022-12-08T23:20:28.241Z,14.23
2022-12-08T23:22:55.244Z,13.73
2022-12-08T23:25:22.122Z,14.80
2022-12-08T23:27:49.022Z,14.88
2022-12-08T23:30:16.392Z,14.20
2022-12-08T23:32:43.400Z,15.05
2022-12-08T23:35:10.528Z,14.18
2022-12-08T23:37:37.719Z,13.98
2022-12-08T23:40:05.514Z,14.05
2022-12-08T23:42:33.021Z,13.77
2022-12-08T23:44:59.885Z,13.88
2022-12-08T23:47:27.037Z,13.77
2022-12-08T23:49:53.824Z,15.23
2022-12-08T23:52:20.635Z,14.63
2022-12-08T23:54:50.347Z,15.15
2022-12-08T23:57:17.339Z,13.90
2022-12-08T23:59:44.220Z,13.65
